Time;durP1;ratioP1;P1;durP2;ratioP2;P2;SDS_P1;SDS_P2;PMS_P1;PMS_P2;Temp;Humidity;BMP_temperature;BMP_pressure;BME280_temperature;BME280_humidity;BME280_pressure;Samples;Min_cycle;Max_cycle;Signal;HPM_P1;HPM_P2
2022/07/25 00:01:43;;;;;;;9.73;5.28;;;21.20;91.10;;;;;;5018812;28;20018;-56
2022/07/25 00:04:10;;;;;;;9.27;5.75;;;21.10;91.10;;;;;;5021513;28;20038;-58
2022/07/25 00:06:36;;;;;;;8.75;5.85;;;21.00;91.20;;;;;;4999960;28;20553;-53
2022/07/25 00:09:02;;;;;;;8.38;6.05;;;21.00;91.40;;;;;;5019367;28;20029;-55
2022/07/25 00:11:28;;;;;;;8.70;6.18;;;21.00;91.70;;;;;;5011784;28;20379;-55
2022/07/25 00:13:54;;;;;;;8.60;6.28;;;20.90;91.90;;;;;;5016364;28;20057;-57
2022/07/25 00:16:19;;;;;;;9.43;6.82;;;20.90;91.90;;;;;;5010704;28;20412;-56
2022/07/25 00:18:45;;;;;;;7.95;5.57;;;20.90;92.30;;;;;;5006565;28;20503;-57
2022/07/25 00:21:10;;;;;;;9.93;5.43;;;20.90;92.50;;;;;;5004786;28;20118;-57
2022/07/25 00:23:36;;;;;;;7.05;5.53;;;20.80;92.50;;;;;;5000880;28;20030;-56
2022/07/25 00:26:02;;;;;;;9.27;5.80;;;20.80;92.40;;;;;;5004145;28;20400;-55
2022/07/25 00:28:27;;;;;;;11.60;7.07;;;20.80;92.40;;;;;;5001642;28;20116;-55
2022/07/25 00:30:53;;;;;;;8.88;6.03;;;20.80;92.30;;;;;;4983217;28;20084;-56
2022/07/25 00:33:19;;;;;;;8.23;5.97;;;20.80;92.70;;;;;;5007756;28;20403;-56
2022/07/25 00:35:45;;;;;;;9.57;5.60;;;20.80;92.30;;;;;;5011317;28;20025;-56
2022/07/25 00:38:10;;;;;;;6.75;5.50;;;20.70;92.30;;;;;;5007695;28;20522;-57
2022/07/25 00:40:36;;;;;;;7.88;6.07;;;20.70;92.80;;;;;;5006053;28;20388;-56
2022/07/25 00:43:02;;;;;;;6.82;6.13;;;20.70;92.70;;;;;;5010392;28;20030;-56
2022/07/25 00:45:27;;;;;;;8.82;6.10;;;20.70;92.60;;;;;;5006511;28;20538;-54
2022/07/25 00:47:53;;;;;;;10.30;6.10;;;20.70;92.80;;;;;;5008508;28;20073;-56
2022/07/25 00:50:19;;;;;;;6.72;5.70;;;20.80;91.90;;;;;;5009006;28;20042;-54
2022/07/25 00:52:45;;;;;;;8.75;5.30;;;20.80;91.90;;;;;;5003608;28;20034;-56
2022/07/25 00:55:11;;;;;;;6.28;5.45;;;20.90;92.40;;;;;;5008149;28;20026;-56
2022/07/25 00:57:37;;;;;;;7.18;6.20;;;20.90;92.40;;;;;;5010552;28;20511;-57
2022/07/25 01:00:09;;;;;;;7.20;5.75;;;20.80;92.20;;;;;;5008684;28;20097;-56
2022/07/25 01:02:34;;;;;;;11.48;5.90;;;20.80;92.60;;;;;;5010993;28;20018;-54
2022/07/25 01:05:01;;;;;;;8.82;5.88;;;20.80;92.70;;;;;;5009088;28;20036;-57
2022/07/25 01:07:26;;;;;;;6.47;5.18;;;20.80;93.00;;;;;;4994464;28;20056;-55
2022/07/25 01:09:53;;;;;;;10.77;5.95;;;20.70;93.10;;;;;;5008426;28;20415;-53
2022/07/25 01:12:18;;;;;;;7.55;5.80;;;20.70;92.70;;;;;;5005503;28;20059;-57
2022/07/25 01:14:44;;;;;;;9.32;6.18;;;20.70;92.90;;;;;;5002843;28;20495;-56
2022/07/25 01:17:12;;;;;;;10.80;6.30;;;20.70;92.90;;;;;;5007667;28;20034;-53
2022/07/25 01:19:37;;;;;;;10.40;5.75;;;20.70;92.80;;;;;;5008192;28;20428;-54
2022/07/25 01:22:03;;;;;;;6.13;5.43;;;20.70;92.30;;;;;;5010056;28;20036;-55
2022/07/25 01:24:28;;;;;;;11.43;6.55;;;20.70;92.60;;;;;;5007948;28;20034;-55
2022/07/25 01:26:54;;;;;;;7.28;6.10;;;20.80;92.50;;;;;;5010287;28;20545;-57
2022/07/25 01:29:20;;;;;;;6.70;5.72;;;20.80;92.90;;;;;;5008900;28;20113;-57
2022/07/25 01:31:46;;;;;;;8.70;5.53;;;20.70;92.90;;;;;;5010091;28;20034;-55
2022/07/25 01:34:11;;;;;;;8.23;5.80;;;20.70;92.80;;;;;;5003998;28;20034;-55
2022/07/25 01:36:37;;;;;;;10.10;6.28;;;20.70;93.70;;;;;;5009585;28;20029;-55
2022/07/25 01:39:03;;;;;;;8.40;6.28;;;20.70;93.10;;;;;;4998083;28;20132;-54
2022/07/25 01:41:29;;;;;;;8.07;6.03;;;20.60;93.20;;;;;;5001844;28;20026;-57
2022/07/25 01:43:54;;;;;;;13.10;6.07;;;20.70;92.70;;;;;;5006496;28;20018;-55
2022/07/25 01:46:20;;;;;;;6.88;5.55;;;20.70;92.50;;;;;;5007349;28;20077;-57
2022/07/25 01:48:45;;;;;;;8.15;5.75;;;20.70;92.50;;;;;;5009468;28;20068;-55
2022/07/25 01:51:11;;;;;;;12.45;5.75;;;20.70;92.70;;;;;;5008566;28;20061;-56
2022/07/25 01:53:37;;;;;;;8.10;6.03;;;20.70;92.40;;;;;;5008626;28;20037;-56
2022/07/25 01:56:07;;;;;;;6.80;6.00;;;20.70;93.00;;;;;;5009637;28;20088;-55
2022/07/25 01:58:32;;;;;;;7.25;6.03;;;20.70;92.30;;;;;;4999982;28;20113;-57
2022/07/25 02:00:58;;;;;;;9.70;5.35;;;20.70;92.40;;;;;;4999310;28;20121;-55
2022/07/25 02:03:29;;;;;;;9.00;6.00;;;20.80;92.20;;;;;;5009814;28;20041;-51
2022/07/25 02:05:59;;;;;;;7.97;6.15;;;20.70;92.10;;;;;;4986627;28;20490;-57
2022/07/25 02:08:25;;;;;;;8.40;6.18;;;20.70;92.80;;;;;;4999713;28;20045;-56
2022/07/25 02:10:51;;;;;;;7.07;5.57;;;20.60;93.40;;;;;;5006982;28;20034;-55
2022/07/25 02:13:16;;;;;;;9.80;6.03;;;20.60;92.90;;;;;;5013021;28;20030;-55
2022/07/25 02:15:42;;;;;;;7.47;6.18;;;20.60;93.00;;;;;;5009919;28;20030;-59
2022/07/25 02:18:08;;;;;;;7.72;6.20;;;20.70;92.40;;;;;;5014017;28;20022;-56
2022/07/25 02:20:33;;;;;;;7.00;5.70;;;20.70;92.20;;;;;;5012269;28;20083;-54
2022/07/25 02:22:59;;;;;;;8.70;6.00;;;20.70;92.30;;;;;;5008303;28;20026;-57
2022/07/25 02:25:25;;;;;;;8.90;5.97;;;20.70;92.40;;;;;;5010398;28;20057;-57
2022/07/25 02:27:50;;;;;;;7.95;5.72;;;20.60;93.00;;;;;;5007552;28;20101;-58
2022/07/25 02:30:16;;;;;;;8.38;5.93;;;20.60;93.20;;;;;;5011082;28;20037;-57
2022/07/25 02:32:41;;;;;;;8.52;5.55;;;20.50;93.70;;;;;;5012901;28;20018;-59
2022/07/25 02:35:08;;;;;;;11.52;6.18;;;20.40;94.10;;;;;;5011570;28;20080;-58
2022/07/25 02:37:33;;;;;;;10.15;5.90;;;20.30;94.30;;;;;;5011887;28;20030;-57
2022/07/25 02:39:59;;;;;;;10.88;6.22;;;20.20;94.50;;;;;;5006846;28;20101;-56
2022/07/25 02:42:25;;;;;;;9.82;5.68;;;20.20;94.60;;;;;;5011541;28;20391;-57
2022/07/25 02:44:50;;;;;;;9.90;6.45;;;20.10;94.90;;;;;;5005022;28;20476;-58
2022/07/25 02:47:16;;;;;;;9.93;5.63;;;20.10;94.90;;;;;;5003922;28;20029;-57
2022/07/25 02:49:41;;;;;;;9.23;6.03;;;20.10;94.50;;;;;;5007772;28;20496;-57
2022/07/25 02:52:07;;;;;;;8.88;6.43;;;20.10;94.50;;;;;;5012098;28;20061;-57
2022/07/25 02:54:32;;;;;;;7.35;5.90;;;20.10;94.20;;;;;;5010525;28;20038;-58
2022/07/25 02:56:58;;;;;;;8.75;6.00;;;20.10;94.40;;;;;;5013407;28;20056;-58
2022/07/25 02:59:24;;;;;;;8.30;5.88;;;20.20;94.20;;;;;;5011441;28;20026;-58
2022/07/25 03:01:49;;;;;;;8.38;5.85;;;20.30;94.30;;;;;;5008942;28;20050;-59
2022/07/25 03:04:15;;;;;;;6.82;6.00;;;20.30;93.90;;;;;;5003887;28;20216;-59
2022/07/25 03:06:40;;;;;;;8.57;5.60;;;20.30;94.30;;;;;;4987550;28;20053;-57
2022/07/25 03:09:06;;;;;;;6.85;5.72;;;20.30;94.50;;;;;;5004964;28;20109;-55
2022/07/25 03:11:33;;;;;;;10.18;6.18;;;20.20;94.70;;;;;;5003395;28;20403;-54
2022/07/25 03:13:59;;;;;;;8.68;6.15;;;20.10;95.20;;;;;;5003046;28;20061;-58
2022/07/25 03:16:24;;;;;;;10.13;6.03;;;20.10;94.80;;;;;;4999284;28;20046;-57
2022/07/25 03:18:50;;;;;;;9.02;6.13;;;20.10;94.60;;;;;;5010068;28;20018;-54
2022/07/25 03:21:16;;;;;;;6.93;5.70;;;20.10;94.50;;;;;;5010997;28;20715;-54
2022/07/25 03:23:42;;;;;;;6.97;5.75;;;20.10;94.80;;;;;;5012616;28;20068;-56
2022/07/25 03:26:08;;;;;;;10.77;6.38;;;20.10;95.40;;;;;;5010706;28;20022;-55
2022/07/25 03:28:33;;;;;;;6.93;5.63;;;20.00;95.50;;;;;;5009888;28;20160;-57
2022/07/25 03:30:59;;;;;;;7.22;5.93;;;20.00;95.40;;;;;;5011747;28;20030;-57
2022/07/25 03:33:24;;;;;;;7.45;5.82;;;19.90;95.60;;;;;;5004450;28;20041;-57
2022/07/25 03:35:50;;;;;;;7.03;5.95;;;20.00;95.30;;;;;;5004285;28;20402;-58
2022/07/25 03:38:16;;;;;;;10.73;6.07;;;19.90;95.00;;;;;;5007124;28;20062;-55
2022/07/25 03:40:41;;;;;;;6.68;5.82;;;19.90;95.40;;;;;;5011374;28;20026;-55
2022/07/25 03:43:07;;;;;;;7.63;5.80;;;19.90;94.90;;;;;;5011873;28;20121;-58
2022/07/25 03:45:33;;;;;;;8.35;6.05;;;19.90;95.20;;;;;;5008784;28;20029;-58
2022/07/25 03:47:58;;;;;;;12.20;6.70;;;19.90;95.80;;;;;;5007018;28;20113;-56
2022/07/25 03:50:24;;;;;;;12.35;7.28;;;19.90;95.60;;;;;;5008474;28;20025;-58
2022/07/25 03:52:49;;;;;;;10.68;6.03;;;19.90;96.60;;;;;;5008139;28;20424;-56
2022/07/25 03:55:15;;;;;;;8.65;5.80;;;19.90;96.30;;;;;;5006838;28;20036;-58
2022/07/25 03:57:40;;;;;;;7.22;6.00;;;19.90;96.10;;;;;;5008719;28;20057;-54
2022/07/25 04:00:08;;;;;;;7.45;5.03;;;19.90;95.90;;;;;;5011337;28;20488;-56
2022/07/25 04:02:36;;;;;;;10.05;6.05;;;19.90;96.00;;;;;;5011302;28;20121;-56
2022/07/25 04:05:02;;;;;;;8.70;5.88;;;19.90;95.70;;;;;;5010533;28;20076;-53
2022/07/25 04:07:27;;;;;;;7.18;6.18;;;19.90;95.60;;;;;;4994025;28;20038;-57
2022/07/25 04:09:53;;;;;;;11.57;5.72;;;20.00;95.40;;;;;;5010987;28;20044;-55
2022/07/25 04:12:19;;;;;;;9.55;5.93;;;20.10;95.70;;;;;;5003589;28;20134;-57
2022/07/25 04:14:44;;;;;;;7.60;6.25;;;20.10;95.70;;;;;;5007310;28;20467;-56
2022/07/25 04:17:10;;;;;;;9.20;6.28;;;20.10;95.70;;;;;;5002974;28;20431;-57
2022/07/25 04:19:35;;;;;;;7.30;5.55;;;20.10;95.50;;;;;;5010697;28;20033;-56
2022/07/25 04:22:01;;;;;;;7.18;6.15;;;20.20;96.10;;;;;;5011646;28;20026;-57
2022/07/25 04:24:27;;;;;;;6.50;4.97;;;20.20;95.50;;;;;;5010074;28;20109;-57
2022/07/25 04:26:52;;;;;;;6.85;6.13;;;20.30;94.60;;;;;;5010858;28;20479;-56
2022/07/25 04:29:18;;;;;;;7.78;5.57;;;20.40;94.30;;;;;;5008656;28;20384;-58
2022/07/25 04:31:44;;;;;;;7.53;5.65;;;20.50;94.20;;;;;;5010658;28;20053;-58
2022/07/25 04:34:09;;;;;;;7.60;5.40;;;20.50;94.90;;;;;;5009628;28;20582;-55
2022/07/25 04:36:35;;;;;;;8.25;6.30;;;20.70;93.80;;;;;;5006734;28;20416;-58
2022/07/25 04:39:00;;;;;;;7.95;5.75;;;20.70;94.10;;;;;;5048704;22;20093;-58
2022/07/25 04:41:26;;;;;;;9.43;4.88;;;20.80;93.30;;;;;;5040330;28;20036;-61
2022/07/25 04:43:52;;;;;;;9.05;5.60;;;21.00;93.00;;;;;;5034151;28;20033;-59
2022/07/25 04:46:21;;;;;;;8.95;5.10;;;21.30;92.80;;;;;;5038176;28;20033;-58
2022/07/25 04:48:47;;;;;;;10.60;5.40;;;21.90;92.50;;;;;;5043259;28;20021;-61
2022/07/25 04:51:13;;;;;;;9.90;5.25;;;22.60;90.50;;;;;;5049959;28;20037;-60
2022/07/25 04:53:38;;;;;;;7.93;5.40;;;23.60;89.10;;;;;;5042828;28;20725;-58
2022/07/25 04:56:05;;;;;;;6.65;4.63;;;24.60;83.80;;;;;;5049742;28;20047;-59
2022/07/25 04:58:31;;;;;;;8.23;4.88;;;26.00;80.60;;;;;;5048518;28;20074;-59
2022/07/25 05:00:57;;;;;;;7.43;5.13;;;27.10;77.30;;;;;;5041318;28;20441;-60
2022/07/25 05:03:23;;;;;;;7.03;4.57;;;28.00;74.90;;;;;;5039458;28;20098;-60
2022/07/25 05:05:49;;;;;;;6.75;4.55;;;29.00;70.00;;;;;;5034552;28;20384;-59
2022/07/25 05:08:14;;;;;;;6.45;4.80;;;29.70;67.20;;;;;;5028629;28;20083;-61
2022/07/25 05:10:40;;;;;;;6.45;4.28;;;30.20;68.70;;;;;;5039996;28;20495;-62
2022/07/25 05:13:06;;;;;;;5.40;4.50;;;30.10;65.40;;;;;;5047418;28;20025;-62
2022/07/25 05:15:31;;;;;;;4.30;3.90;;;30.90;63.90;;;;;;5048993;28;20032;-59
2022/07/25 05:17:57;;;;;;;4.90;4.50;;;31.30;63.20;;;;;;5049168;28;20095;-59
2022/07/25 05:20:23;;;;;;;6.57;4.53;;;32.40;62.90;;;;;;5046984;28;20090;-60
2022/07/25 05:22:48;;;;;;;5.70;4.47;;;32.40;61.30;;;;;;5044431;28;20021;-59
2022/07/25 05:25:14;;;;;;;5.53;4.70;;;33.10;60.20;;;;;;5043548;28;20576;-59
2022/07/25 05:27:40;;;;;;;5.28;4.68;;;33.70;59.00;;;;;;5042711;28;20031;-59
2022/07/25 05:30:07;;;;;;;6.07;4.43;;;33.60;58.80;;;;;;5043827;28;20044;-59
2022/07/25 05:32:32;;;;;;;8.23;3.95;;;33.80;58.90;;;;;;5034615;28;20028;-59
2022/07/25 05:34:58;;;;;;;4.50;4.07;;;34.50;57.80;;;;;;5041983;28;20072;-59
2022/07/25 05:37:24;;;;;;;4.80;3.90;;;34.50;57.90;;;;;;5045617;28;20021;-57
2022/07/25 05:39:49;;;;;;;7.53;4.28;;;35.50;55.50;;;;;;5047254;28;20033;-57
2022/07/25 05:42:15;;;;;;;9.65;3.88;;;36.20;54.50;;;;;;5045583;28;20021;-59
2022/07/25 05:44:40;;;;;;;4.47;4.07;;;36.80;54.30;;;;;;5047903;28;20025;-59
2022/07/25 05:47:10;;;;;;;5.63;3.90;;;36.40;54.00;;;;;;5041493;28;20036;-61
2022/07/25 05:49:36;;;;;;;5.10;3.95;;;36.80;53.40;;;;;;5043812;28;20059;-61
2022/07/25 05:52:03;;;;;;;4.45;4.05;;;36.40;54.10;;;;;;5044750;28;20040;-61
2022/07/25 05:54:29;;;;;;;5.55;3.70;;;37.40;52.40;;;;;;5036196;28;20178;-61
2022/07/25 05:56:54;;;;;;;5.88;3.83;;;37.80;52.00;;;;;;5037427;28;20096;-60
2022/07/25 05:59:20;;;;;;;4.35;3.95;;;38.10;52.10;;;;;;5047676;28;20021;-59
2022/07/25 06:01:45;;;;;;;5.68;4.30;;;37.00;52.30;;;;;;5041738;28;20368;-60
2022/07/25 06:04:11;;;;;;;4.88;3.65;;;36.20;54.90;;;;;;5047438;28;20087;-60
2022/07/25 06:06:37;;;;;;;4.82;4.32;;;36.20;54.80;;;;;;5042180;28;20390;-60
2022/07/25 06:09:03;;;;;;;5.70;3.83;;;36.50;53.10;;;;;;5027137;28;20125;-59
2022/07/25 06:11:30;;;;;;;5.35;4.20;;;35.90;54.80;;;;;;5041833;28;20516;-60
2022/07/25 06:13:56;;;;;;;7.18;4.15;;;35.30;54.20;;;;;;5038399;28;20494;-59
2022/07/25 06:16:21;;;;;;;5.68;3.60;;;35.80;54.30;;;;;;5042002;28;20040;-60
2022/07/25 06:18:47;;;;;;;9.23;4.45;;;35.70;54.20;;;;;;5044245;28;20080;-60
2022/07/25 06:21:12;;;;;;;4.18;3.78;;;34.80;54.60;;;;;;5040286;28;20499;-60
2022/07/25 06:23:38;;;;;;;6.20;4.18;;;34.20;55.80;;;;;;5046472;28;20526;-59
2022/07/25 06:26:07;;;;;;;6.90;4.40;;;33.60;56.90;;;;;;5043663;28;20033;-59
2022/07/25 06:28:32;;;;;;;4.93;3.80;;;33.20;57.60;;;;;;5038493;28;20079;-58
2022/07/25 06:30:58;;;;;;;12.50;4.78;;;32.70;58.10;;;;;;5043899;28;20029;-57
2022/07/25 06:33:24;;;;;;;5.57;4.45;;;31.80;60.60;;;;;;5038805;28;20037;-57
2022/07/25 06:35:49;;;;;;;5.75;4.30;;;31.00;62.30;;;;;;5048789;28;20488;-57
2022/07/25 06:38:15;;;;;;;5.68;4.50;;;30.20;64.60;;;;;;5040157;28;20033;-57
2022/07/25 06:40:41;;;;;;;5.68;4.50;;;30.00;64.60;;;;;;5044248;28;20032;-60
2022/07/25 06:43:06;;;;;;;6.38;4.82;;;30.60;65.50;;;;;;5040741;28;20066;-59
2022/07/25 06:45:32;;;;;;;6.82;4.65;;;31.70;62.40;;;;;;5043869;28;20025;-59
2022/07/25 06:47:58;;;;;;;8.15;4.18;;;32.30;61.60;;;;;;5037499;28;20429;-58
2022/07/25 06:50:23;;;;;;;11.15;4.60;;;33.90;59.60;;;;;;5038679;28;20083;-60
2022/07/25 06:52:49;;;;;;;7.10;3.92;;;35.00;56.50;;;;;;5042442;28;20025;-59
2022/07/25 06:55:15;;;;;;;5.00;4.50;;;35.70;56.80;;;;;;5032386;28;20718;-59
2022/07/25 06:57:41;;;;;;;4.45;4.05;;;37.30;55.30;;;;;;5041651;28;20067;-60
2022/07/25 07:00:10;;;;;;;4.85;3.78;;;37.60;54.40;;;;;;5045595;28;20043;-58
2022/07/25 07:02:55;;;;;;;5.55;4.18;;;38.30;53.20;;;;;;5045901;28;20025;-60
2022/07/25 07:05:25;;;;;;;5.47;3.85;;;37.70;52.80;;;;;;5037634;28;20399;-60
2022/07/25 07:07:51;;;;;;;8.05;4.47;;;37.30;54.20;;;;;;5045869;28;20036;-57
2022/07/25 07:10:17;;;;;;;7.72;4.38;;;38.10;54.30;;;;;;5032151;28;20068;-60
2022/07/25 07:12:44;;;;;;;5.63;4.75;;;38.10;52.90;;;;;;5045932;28;20029;-60
2022/07/25 07:15:10;;;;;;;5.90;4.20;;;38.80;53.60;;;;;;5044079;28;20170;-58
2022/07/25 07:17:36;;;;;;;5.00;4.00;;;39.50;51.80;;;;;;5046991;28;20025;-60
2022/07/25 07:20:03;;;;;;;4.70;4.13;;;39.40;53.10;;;;;;5044348;28;20033;-59
2022/07/25 07:22:29;;;;;;;5.10;4.55;;;38.70;52.10;;;;;;5044859;28;20016;-60
2022/07/25 07:24:54;;;;;;;4.80;4.30;;;37.30;53.80;;;;;;5045500;28;20044;-60
2022/07/25 07:27:22;;;;;;;5.10;4.45;;;36.70;54.60;;;;;;5046550;28;20058;-59
2022/07/25 07:29:48;;;;;;;5.43;4.25;;;36.00;57.40;;;;;;5041629;28;20025;-60
2022/07/25 07:32:14;;;;;;;6.60;4.50;;;35.20;58.90;;;;;;5042237;28;20041;-60
2022/07/25 07:34:39;;;;;;;6.20;4.38;;;34.60;57.20;;;;;;5052056;28;20078;-58
2022/07/25 07:37:05;;;;;;;6.95;4.30;;;35.00;57.90;;;;;;5049484;28;20029;-61
2022/07/25 07:39:30;;;;;;;8.00;4.22;;;35.30;56.90;;;;;;5051079;28;20036;-60
2022/07/25 07:41:56;;;;;;;5.22;4.45;;;36.00;55.70;;;;;;5051469;28;20021;-62
2022/07/25 07:44:22;;;;;;;6.72;4.60;;;35.20;56.30;;;;;;5047153;28;20116;-60
2022/07/25 07:46:47;;;;;;;6.25;4.35;;;34.80;58.40;;;;;;5049495;28;20025;-59
2022/07/25 07:49:13;;;;;;;5.43;4.88;;;35.20;57.40;;;;;;5049721;28;20523;-60
2022/07/25 07:51:38;;;;;;;11.13;4.47;;;36.10;57.40;;;;;;5046805;28;20029;-63
2022/07/25 07:56:49;;;;;;;9.27;4.05;;;38.60;53.60;;;;;;5046285;28;20041;-61
2022/07/25 07:59:14;;;;;;;7.60;4.38;;;39.60;52.40;;;;;;5046864;28;20426;-61
2022/07/25 08:01:40;;;;;;;6.50;4.40;;;39.60;53.20;;;;;;5047629;28;20033;-60
2022/07/25 08:04:06;;;;;;;5.70;4.28;;;39.40;51.50;;;;;;5039075;28;20029;-60
2022/07/25 08:06:32;;;;;;;6.75;4.63;;;39.60;52.10;;;;;;5036942;28;20025;-61
2022/07/25 08:08:57;;;;;;;7.78;4.47;;;38.80;53.30;;;;;;5028979;28;20414;-59
2022/07/25 08:11:25;;;;;;;6.15;4.32;;;38.40;54.30;;;;;;5044295;28;20040;-59
2022/07/25 08:13:50;;;;;;;6.65;4.75;;;38.00;52.10;;;;;;5047654;28;20025;-60
2022/07/25 08:16:16;;;;;;;5.97;4.45;;;37.60;53.00;;;;;;5042373;28;20403;-60
2022/07/25 08:18:42;;;;;;;4.95;4.30;;;37.80;54.20;;;;;;5047253;28;20032;-60
2022/07/25 08:21:07;;;;;;;7.43;4.53;;;37.80;52.90;;;;;;5043365;28;20380;-60
2022/07/25 08:23:34;;;;;;;9.43;5.32;;;37.20;53.10;;;;;;5049038;28;20075;-60
2022/07/25 08:26:01;;;;;;;6.38;4.38;;;36.90;53.00;;;;;;5041478;28;20029;-60
2022/07/25 08:28:27;;;;;;;4.38;3.88;;;36.30;54.80;;;;;;5044151;28;20076;-60
2022/07/25 08:30:53;;;;;;;7.60;5.13;;;35.90;54.90;;;;;;5045908;28;20072;-59
2022/07/25 08:33:19;;;;;;;9.68;4.72;;;35.50;55.50;;;;;;5040168;28;20056;-59
2022/07/25 08:35:47;;;;;;;13.00;4.53;;;35.00;56.40;;;;;;5043587;28;20475;-60
2022/07/25 08:38:13;;;;;;;8.23;4.65;;;34.40;57.10;;;;;;5038911;28;20399;-58
2022/07/25 08:40:38;;;;;;;7.30;4.30;;;34.30;57.90;;;;;;5037916;28;20029;-60
2022/07/25 08:43:04;;;;;;;10.05;4.95;;;34.40;57.80;;;;;;5043932;28;20033;-62
2022/07/25 08:45:32;;;;;;;6.50;4.88;;;34.00;59.20;;;;;;5042721;28;20078;-62
2022/07/25 08:47:58;;;;;;;5.22;4.70;;;33.50;59.00;;;;;;5044588;28;20028;-59
2022/07/25 08:50:28;;;;;;;5.72;4.63;;;33.10;59.80;;;;;;5045826;28;20410;-60
2022/07/25 08:52:54;;;;;;;5.45;4.43;;;33.10;60.60;;;;;;5038114;28;20025;-56
2022/07/25 08:55:22;;;;;;;9.23;4.88;;;33.30;62.00;;;;;;5040140;28;20029;-59
2022/07/25 08:57:52;;;;;;;7.80;4.75;;;33.20;62.20;;;;;;5043474;28;20053;-59
2022/07/25 09:00:21;;;;;;;8.40;5.22;;;33.30;60.20;;;;;;5043079;28;20029;-60
2022/07/25 09:02:59;;;;;;;12.55;5.55;;;32.60;61.20;;;;;;5047674;28;20021;-58
2022/07/25 09:05:27;;;;;;;7.43;5.30;;;32.30;62.20;;;;;;5047189;28;20040;-59
2022/07/25 09:07:54;;;;;;;10.02;5.15;;;32.30;64.20;;;;;;5043424;28;20040;-60
2022/07/25 09:10:25;;;;;;;8.18;5.05;;;32.20;62.80;;;;;;5032580;28;20072;-59
2022/07/25 09:12:56;;;;;;;9.70;4.60;;;32.30;63.40;;;;;;5045812;28;20353;-59
2022/07/25 09:15:32;;;;;;;8.95;5.13;;;32.70;65.50;;;;;;5039047;28;20499;-59
2022/07/25 09:18:00;;;;;;;7.65;5.40;;;33.20;63.70;;;;;;5044373;28;20021;-60
2022/07/25 09:20:57;;;;;;;11.32;5.28;;;33.90;60.00;;;;;;5045472;28;20036;-59
2022/07/25 09:23:37;;;;;;;6.10;4.32;;;34.80;59.90;;;;;;5038375;28;20521;-60
2022/07/25 09:26:07;;;;;;;7.82;5.32;;;34.70;59.60;;;;;;5044971;28;20040;-58
2022/07/25 09:28:47;;;;;;;6.38;5.63;;;34.60;59.40;;;;;;5040875;28;20025;-60
2022/07/25 09:31:14;;;;;;;5.65;4.70;;;35.40;59.20;;;;;;5039526;28;20495;-59
2022/07/25 09:33:55;;;;;;;6.13;4.72;;;35.50;56.80;;;;;;5049723;28;20040;-60
2022/07/25 09:36:21;;;;;;;9.13;4.68;;;36.00;57.70;;;;;;5047102;28;20040;-59
2022/07/25 09:38:53;;;;;;;7.95;4.78;;;36.00;56.00;;;;;;5040425;28;20028;-59
2022/07/25 09:41:19;;;;;;;6.18;4.50;;;36.40;55.30;;;;;;5047549;28;20025;-60
2022/07/25 09:43:46;;;;;;;5.78;4.50;;;36.80;54.70;;;;;;5039503;28;20034;-60
2022/07/25 09:46:12;;;;;;;8.90;5.15;;;36.50;54.30;;;;;;5044003;28;20048;-60
2022/07/25 09:48:42;;;;;;;10.65;4.63;;;36.40;53.90;;;;;;5046544;28;20072;-59
2022/07/25 09:51:08;;;;;;;7.10;4.55;;;35.90;53.40;;;;;;5043998;28;20429;-59
2022/07/25 09:53:34;;;;;;;12.23;4.85;;;34.80;54.80;;;;;;5044209;28;20082;-59
2022/07/25 09:56:00;;;;;;;9.52;5.07;;;34.20;57.20;;;;;;5038739;28;20029;-59
2022/07/25 09:58:27;;;;;;;5.50;4.47;;;34.00;57.40;;;;;;5041498;28;20364;-59
2022/07/25 10:00:59;;;;;;;7.97;5.07;;;34.10;58.10;;;;;;5043717;28;20021;-60
2022/07/25 10:03:43;;;;;;;9.52;5.20;;;34.50;56.80;;;;;;5046207;28;20475;-61
2022/07/25 10:06:39;;;;;;;9.18;5.47;;;35.30;58.00;;;;;;5044997;28;20440;-60
2022/07/25 10:09:12;;;;;;;8.15;4.95;;;35.80;55.50;;;;;;5027022;28;20517;-60
2022/07/25 10:11:38;;;;;;;5.18;4.25;;;35.90;54.60;;;;;;5041027;28;20025;-59
2022/07/25 10:14:11;;;;;;;9.90;4.53;;;36.00;55.40;;;;;;5041177;28;20045;-60
2022/07/25 10:16:47;;;;;;;7.63;4.80;;;36.10;54.70;;;;;;5031323;28;20032;-59
2022/07/25 10:19:13;;;;;;;11.68;5.18;;;35.80;54.60;;;;;;5042179;28;20025;-60
2022/07/25 10:21:38;;;;;;;12.40;5.00;;;35.40;54.10;;;;;;5038865;28;20028;-60
2022/07/25 10:24:07;;;;;;;7.15;4.90;;;34.60;56.00;;;;;;5035810;28;20030;-60
2022/07/25 10:26:38;;;;;;;11.05;5.75;;;33.70;56.20;;;;;;5044150;28;20065;-59
2022/07/25 10:29:09;;;;;;;7.20;4.68;;;33.10;57.70;;;;;;5041850;28;20033;-60
2022/07/25 10:31:44;;;;;;;7.82;5.03;;;32.60;59.40;;;;;;5051586;28;20513;-60
2022/07/25 10:34:12;;;;;;;7.15;5.25;;;32.00;59.70;;;;;;5050634;28;20039;-57
2022/07/25 10:36:41;;;;;;;6.25;5.32;;;31.50;60.90;;;;;;5052984;28;20028;-58
2022/07/25 10:39:09;;;;;;;7.22;4.85;;;31.20;62.10;;;;;;5049746;28;20017;-58
2022/07/25 10:41:39;;;;;;;7.72;5.28;;;31.00;62.10;;;;;;5053906;28;20033;-58
2022/07/25 10:44:11;;;;;;;7.43;4.90;;;30.60;65.10;;;;;;5043493;28;20067;-60
2022/07/25 10:46:37;;;;;;;19.55;5.47;;;30.20;66.80;;;;;;5045061;28;20049;-59
2022/07/25 10:49:05;;;;;;;9.60;5.60;;;29.80;67.90;;;;;;5045406;28;20445;-62
2022/07/25 10:51:36;;;;;;;7.05;5.68;;;29.50;72.80;;;;;;5046519;28;20048;-60
2022/07/25 10:54:16;;;;;;;6.38;5.22;;;29.40;72.90;;;;;;5040252;28;20043;-58
2022/07/25 10:56:56;;;;;;;8.02;5.60;;;29.10;74.50;;;;;;5037279;28;20027;-58
2022/07/25 10:59:38;;;;;;;11.63;5.78;;;29.00;71.60;;;;;;5046710;28;20040;-59
2022/07/25 11:02:08;;;;;;;12.93;5.45;;;29.00;72.20;;;;;;5046936;28;20029;-57
2022/07/25 11:04:34;;;;;;;6.82;5.43;;;29.00;72.60;;;;;;5043222;28;20111;-57
2022/07/25 11:07:15;;;;;;;9.63;5.75;;;29.20;73.10;;;;;;5052542;28;20021;-58
2022/07/25 11:09:54;;;;;;;11.73;5.35;;;29.50;72.60;;;;;;5022139;28;20060;-58
2022/07/25 11:12:20;;;;;;;16.63;5.32;;;29.50;70.30;;;;;;5051982;28;20025;-56
2022/07/25 11:14:46;;;;;;;9.82;5.47;;;29.50;70.90;;;;;;5046673;28;20033;-55
2022/07/25 11:17:22;;;;;;;13.25;5.82;;;29.30;70.60;;;;;;5048298;28;20112;-59
2022/07/25 11:19:58;;;;;;;10.13;5.88;;;29.30;70.80;;;;;;5048159;28;20021;-57
2022/07/25 11:22:28;;;;;;;8.40;5.85;;;29.50;71.10;;;;;;5043038;28;20033;-59
2022/07/25 11:24:54;;;;;;;10.52;5.13;;;29.60;68.50;;;;;;5047769;28;20534;-55
2022/07/25 11:27:32;;;;;;;9.98;5.95;;;29.50;70.00;;;;;;5052104;28;20541;-60
2022/07/25 11:30:13;;;;;;;8.30;4.88;;;29.50;69.40;;;;;;5035321;28;20037;-61
2022/07/25 11:32:41;;;;;;;7.53;5.70;;;29.50;70.20;;;;;;5048563;28;20071;-56
2022/07/25 11:35:08;;;;;;;8.05;5.45;;;29.80;71.70;;;;;;5047994;28;20025;-58
2022/07/25 11:37:37;;;;;;;16.30;6.07;;;29.90;69.60;;;;;;5047536;28;20526;-57
2022/07/25 11:40:03;;;;;;;7.85;5.60;;;30.30;68.00;;;;;;5048233;28;20043;-58
2022/07/25 11:42:39;;;;;;;13.45;6.03;;;30.30;68.30;;;;;;5050527;28;20021;-58
2022/07/25 11:45:25;;;;;;;11.88;6.30;;;30.00;68.20;;;;;;5043034;28;20037;-58
2022/07/25 11:48:12;;;;;;;8.82;5.55;;;29.90;68.10;;;;;;5042089;28;20033;-57
2022/07/25 11:50:43;;;;;;;8.95;5.35;;;30.40;69.30;;;;;;5041986;28;20032;-57
2022/07/25 11:53:13;;;;;;;9.75;5.93;;;30.80;69.00;;;;;;5051751;28;20060;-59
2022/07/25 11:55:41;;;;;;;8.65;5.63;;;30.90;67.50;;;;;;5047531;28;20045;-59
2022/07/25 11:58:07;;;;;;;11.25;5.10;;;30.50;68.20;;;;;;5049058;28;20021;-56
2022/07/25 12:00:42;;;;;;;6.53;5.18;;;30.60;68.90;;;;;;5043835;28;20017;-56
2022/07/25 12:03:13;;;;;;;9.55;5.90;;;30.70;68.80;;;;;;5047454;28;20033;-57
2022/07/25 12:05:39;;;;;;;12.82;5.70;;;30.40;67.60;;;;;;5046783;28;20064;-59
2022/07/25 12:08:09;;;;;;;7.45;6.10;;;30.50;67.60;;;;;;5048890;28;20036;-58
2022/07/25 12:10:36;;;;;;;10.48;5.70;;;30.60;67.80;;;;;;5027859;28;20048;-58
2022/07/25 12:13:03;;;;;;;12.38;5.95;;;30.40;67.40;;;;;;5031874;28;20017;-59
2022/07/25 12:15:31;;;;;;;8.95;5.65;;;30.40;68.50;;;;;;5039905;28;20029;-60
2022/07/25 12:17:57;;;;;;;8.93;5.57;;;30.30;68.10;;;;;;5040004;28;20364;-61
2022/07/25 12:20:27;;;;;;;7.80;5.53;;;30.40;68.20;;;;;;5038115;28;20027;-60
2022/07/25 12:22:56;;;;;;;13.02;4.70;;;30.70;67.30;;;;;;5044847;28;20021;-60
2022/07/25 12:25:22;;;;;;;11.68;4.97;;;30.60;66.40;;;;;;5040257;28;20487;-63
2022/07/25 12:27:49;;;;;;;12.35;5.80;;;30.30;67.20;;;;;;5037810;28;20033;-61
2022/07/25 12:30:15;;;;;;;9.18;5.72;;;30.60;68.60;;;;;;5035234;28;20033;-61
2022/07/25 12:32:41;;;;;;;7.68;4.38;;;30.50;66.80;;;;;;5046631;28;20043;-62
2022/07/25 12:35:09;;;;;;;11.43;5.65;;;30.70;66.70;;;;;;5046372;28;20044;-61
2022/07/25 12:37:34;;;;;;;8.13;4.70;;;30.60;66.90;;;;;;5042890;28;20127;-57
2022/07/25 12:40:00;;;;;;;8.02;4.72;;;30.90;68.10;;;;;;5047600;28;20108;-59
2022/07/25 12:42:27;;;;;;;6.90;5.13;;;30.60;64.80;;;;;;5044031;28;20048;-58
2022/07/25 12:44:54;;;;;;;6.40;4.28;;;30.40;64.40;;;;;;5039161;28;20437;-57
2022/07/25 12:47:20;;;;;;;11.63;4.47;;;30.30;65.80;;;;;;5044822;28;20630;-60
2022/07/25 12:49:46;;;;;;;14.98;4.35;;;30.50;64.90;;;;;;5043038;28;20549;-59